sensor_id;sensor_type;location;lat;lon;timestamp;pressure;altitude;pressure_sealevel;temperature;humidity
28606;BME280;46498;49.968;7.754;2022-11-28T00:04:50;96876.00;;;3.02;100.00
28606;BME280;46498;49.968;7.754;2022-11-28T00:09:51;96870.00;;;3.00;100.00
28606;BME280;46498;49.968;7.754;2022-11-28T00:14:52;96874.00;;;3.02;100.00
28606;BME280;46498;49.968;7.754;2022-11-28T00:19:53;96859.00;;;2.99;100.00
28606;BME280;46498;49.968;7.754;2022-11-28T00:24:54;96850.00;;;2.92;100.00
28606;BME280;46498;49.968;7.754;2022-11-28T00:29:55;96849.00;;;2.76;100.00
28606;BME280;46498;49.968;7.754;2022-11-28T00:34:56;96850.00;;;2.80;100.00
28606;BME280;46498;49.968;7.754;2022-11-28T00:39:57;96850.00;;;2.79;100.00
28606;BME280;46498;49.968;7.754;2022-11-28T00:44:58;96845.00;;;2.99;100.00
28606;BME280;46498;49.968;7.754;2022-11-28T00:49:59;96853.00;;;2.89;100.00
28606;BME280;46498;49.968;7.754;2022-11-28T00:54:59;96842.00;;;2.82;100.00
28606;BME280;46498;49.968;7.754;2022-11-28T01:00:00;96844.00;;;2.83;100.00
28606;BME280;46498;49.968;7.754;2022-11-28T01:05:01;96834.00;;;2.76;100.00
28606;BME280;46498;49.968;7.754;2022-11-28T01:10:03;96836.00;;;2.90;100.00
28606;BME280;46498;49.968;7.754;2022-11-28T01:15:05;96831.00;;;2.95;100.00
28606;BME280;46498;49.968;7.754;2022-11-28T01:20:08;96819.00;;;2.98;100.00
28606;BME280;46498;49.968;7.754;2022-11-28T01:25:09;96807.00;;;2.73;100.00
28606;BME280;46498;49.968;7.754;2022-11-28T01:30:10;96805.00;;;2.68;100.00
28606;BME280;46498;49.968;7.754;2022-11-28T01:35:11;96803.00;;;2.78;100.00
28606;BME280;46498;49.968;7.754;2022-11-28T01:40:12;96818.00;;;2.80;100.00
28606;BME280;46498;49.968;7.754;2022-11-28T01:45:19;96798.00;;;2.80;100.00
28606;BME280;46498;49.968;7.754;2022-11-28T01:50:21;96798.00;;;2.78;100.00
28606;BME280;46498;49.968;7.754;2022-11-28T01:55:26;96779.00;;;2.78;100.00
28606;BME280;46498;49.968;7.754;2022-11-28T02:00:29;96771.00;;;2.67;100.00
28606;BME280;46498;49.968;7.754;2022-11-28T02:05:30;96773.00;;;2.53;100.00
28606;BME280;46498;49.968;7.754;2022-11-28T02:10:43;96779.00;;;2.57;100.00
28606;BME280;46498;49.968;7.754;2022-11-28T02:17:33;96761.00;;;2.58;100.00
28606;BME280;46498;49.968;7.754;2022-11-28T02:22:51;96767.00;;;2.58;100.00
28606;BME280;46498;49.968;7.754;2022-11-28T02:33:41;96762.00;;;2.58;100.00
28606;BME280;46498;49.968;7.754;2022-11-28T02:51:11;96760.00;;;2.44;100.00
28606;BME280;46498;49.968;7.754;2022-11-28T02:56:14;96730.00;;;2.24;100.00
28606;BME280;46498;49.968;7.754;2022-11-28T03:01:24;96723.00;;;2.26;100.00
28606;BME280;46498;49.968;7.754;2022-11-28T03:07:43;96725.00;;;2.21;100.00
28606;BME280;46498;49.968;7.754;2022-11-28T03:14:43;96715.00;;;2.20;100.00
28606;BME280;46498;49.968;7.754;2022-11-28T03:19:57;96711.00;;;2.22;100.00
28606;BME280;46498;49.968;7.754;2022-11-28T03:25:15;96695.00;;;2.15;100.00
28606;BME280;46498;49.968;7.754;2022-11-28T03:30:29;96696.00;;;2.12;100.00
28606;BME280;46498;49.968;7.754;2022-11-28T03:35:36;96687.00;;;2.21;100.00
28606;BME280;46498;49.968;7.754;2022-11-28T03:40:42;96694.00;;;2.25;100.00
28606;BME280;46498;49.968;7.754;2022-11-28T03:45:54;96671.00;;;2.15;100.00
28606;BME280;46498;49.968;7.754;2022-11-28T03:51:14;96666.00;;;2.10;100.00
28606;BME280;46498;49.968;7.754;2022-11-28T03:56:24;96676.00;;;2.06;100.00
28606;BME280;46498;49.968;7.754;2022-11-28T04:01:33;96678.00;;;2.08;100.00
28606;BME280;46498;49.968;7.754;2022-11-28T04:09:49;96672.00;;;2.00;100.00
28606;BME280;46498;49.968;7.754;2022-11-28T04:14:54;96668.00;;;2.10;100.00
28606;BME280;46498;49.968;7.754;2022-11-28T04:20:15;96668.00;;;2.03;100.00
28606;BME280;46498;49.968;7.754;2022-11-28T04:25:22;96675.00;;;2.09;100.00
28606;BME280;46498;49.968;7.754;2022-11-28T04:30:26;96667.00;;;1.97;100.00
28606;BME280;46498;49.968;7.754;2022-11-28T04:35:31;96672.00;;;1.79;100.00
28606;BME280;46498;49.968;7.754;2022-11-28T04:52:35;96665.00;;;1.94;100.00
28606;BME280;46498;49.968;7.754;2022-11-28T04:58:08;96666.00;;;1.84;100.00
28606;BME280;46498;49.968;7.754;2022-11-28T05:03:12;96646.00;;;1.84;100.00
28606;BME280;46498;49.968;7.754;2022-11-28T05:08:13;96643.00;;;1.91;100.00
28606;BME280;46498;49.968;7.754;2022-11-28T05:13:15;96653.00;;;1.88;100.00
28606;BME280;46498;49.968;7.754;2022-11-28T05:18:16;96648.00;;;1.92;100.00
28606;BME280;46498;49.968;7.754;2022-11-28T05:23:17;96641.00;;;1.86;100.00
28606;BME280;46498;49.968;7.754;2022-11-28T05:28:18;96651.00;;;1.83;100.00
28606;BME280;46498;49.968;7.754;2022-11-28T05:33:18;96642.00;;;1.81;100.00
28606;BME280;46498;49.968;7.754;2022-11-28T05:38:19;96643.00;;;1.85;100.00
28606;BME280;46498;49.968;7.754;2022-11-28T05:43:20;96641.00;;;1.79;100.00
28606;BME280;46498;49.968;7.754;2022-11-28T05:48:21;96647.00;;;1.81;100.00
28606;BME280;46498;49.968;7.754;2022-11-28T05:53:22;96664.00;;;1.71;100.00
28606;BME280;46498;49.968;7.754;2022-11-28T05:58:24;96667.00;;;1.89;100.00
28606;BME280;46498;49.968;7.754;2022-11-28T06:03:24;96667.00;;;2.04;100.00
28606;BME280;46498;49.968;7.754;2022-11-28T06:08:25;96666.00;;;1.97;100.00
28606;BME280;46498;49.968;7.754;2022-11-28T06:13:26;96672.00;;;1.90;100.00
28606;BME280;46498;49.968;7.754;2022-11-28T06:18:27;96645.00;;;1.83;100.00
28606;BME280;46498;49.968;7.754;2022-11-28T06:23:28;96649.00;;;1.82;100.00
28606;BME280;46498;49.968;7.754;2022-11-28T06:28:29;96651.00;;;1.77;100.00
28606;BME280;46498;49.968;7.754;2022-11-28T06:33:30;96633.00;;;1.91;100.00
28606;BME280;46498;49.968;7.754;2022-11-28T06:38:31;96658.00;;;1.92;100.00
28606;BME280;46498;49.968;7.754;2022-11-28T06:43:33;96648.00;;;1.78;100.00
28606;BME280;46498;49.968;7.754;2022-11-28T06:48:34;96649.00;;;1.79;100.00
28606;BME280;46498;49.968;7.754;2022-11-28T06:53:35;96653.00;;;1.81;100.00
28606;BME280;46498;49.968;7.754;2022-11-28T06:58:36;96652.00;;;1.88;100.00
28606;BME280;46498;49.968;7.754;2022-11-28T07:03:37;96650.00;;;1.87;100.00
28606;BME280;46498;49.968;7.754;2022-11-28T07:08:39;96652.00;;;1.94;100.00
28606;BME280;46498;49.968;7.754;2022-11-28T07:13:41;96674.00;;;1.95;100.00
28606;BME280;46498;49.968;7.754;2022-11-28T07:18:45;96683.00;;;1.92;100.00
28606;BME280;46498;49.968;7.754;2022-11-28T07:23:50;96688.00;;;1.97;100.00
28606;BME280;46498;49.968;7.754;2022-11-28T07:28:51;96686.00;;;1.99;100.00
28606;BME280;46498;49.968;7.754;2022-11-28T07:33:52;96681.00;;;2.06;100.00
28606;BME280;46498;49.968;7.754;2022-11-28T07:38:56;96670.00;;;2.13;100.00
28606;BME280;46498;49.968;7.754;2022-11-28T07:43:59;96679.00;;;2.22;100.00
28606;BME280;46498;49.968;7.754;2022-11-28T07:49:01;96664.00;;;2.26;100.00
28606;BME280;46498;49.968;7.754;2022-11-28T07:54:03;96667.00;;;2.25;100.00
28606;BME280;46498;49.968;7.754;2022-11-28T07:59:05;96660.00;;;2.27;100.00
28606;BME280;46498;49.968;7.754;2022-11-28T08:04:08;96670.00;;;2.20;100.00
28606;BME280;46498;49.968;7.754;2022-11-28T08:09:09;96666.00;;;2.13;100.00
28606;BME280;46498;49.968;7.754;2022-11-28T08:14:13;96675.00;;;2.16;100.00
28606;BME280;46498;49.968;7.754;2022-11-28T08:19:14;96677.00;;;2.15;100.00
28606;BME280;46498;49.968;7.754;2022-11-28T08:24:15;96669.00;;;2.16;100.00
28606;BME280;46498;49.968;7.754;2022-11-28T08:29:16;96674.00;;;2.28;100.00
28606;BME280;46498;49.968;7.754;2022-11-28T08:34:17;96672.00;;;2.36;100.00
28606;BME280;46498;49.968;7.754;2022-11-28T08:39:18;96668.00;;;2.53;100.00
28606;BME280;46498;49.968;7.754;2022-11-28T08:44:27;96669.00;;;2.52;100.00
28606;BME280;46498;49.968;7.754;2022-11-28T08:49:31;96669.00;;;2.67;100.00
28606;BME280;46498;49.968;7.754;2022-11-28T08:54:32;96670.00;;;2.68;100.00
28606;BME280;46498;49.968;7.754;2022-11-28T08:59:33;96668.00;;;2.73;100.00
28606;BME280;46498;49.968;7.754;2022-11-28T09:04:34;96662.00;;;2.70;100.00
28606;BME280;46498;49.968;7.754;2022-11-28T09:09:34;96662.00;;;2.77;100.00
28606;BME280;46498;49.968;7.754;2022-11-28T09:14:35;96668.00;;;2.75;100.00
28606;BME280;46498;49.968;7.754;2022-11-28T09:19:37;96673.00;;;2.75;100.00
28606;BME280;46498;49.968;7.754;2022-11-28T09:24:38;96676.00;;;2.86;100.00
28606;BME280;46498;49.968;7.754;2022-11-28T09:29:39;96676.00;;;2.88;100.00
28606;BME280;46498;49.968;7.754;2022-11-28T09:34:41;96669.00;;;2.90;100.00
28606;BME280;46498;49.968;7.754;2022-11-28T09:39:41;96674.00;;;2.93;100.00
28606;BME280;46498;49.968;7.754;2022-11-28T09:45:22;96680.00;;;3.02;100.00
28606;BME280;46498;49.968;7.754;2022-11-28T09:50:28;96669.00;;;3.21;100.00
28606;BME280;46498;49.968;7.754;2022-11-28T09:55:39;96673.00;;;3.24;100.00
28606;BME280;46498;49.968;7.754;2022-11-28T10:01:13;96672.00;;;3.28;100.00
28606;BME280;46498;49.968;7.754;2022-11-28T10:06:50;96664.00;;;3.28;100.00
28606;BME280;46498;49.968;7.754;2022-11-28T10:12:39;96670.00;;;3.37;100.00
28606;BME280;46498;49.968;7.754;2022-11-28T10:19:07;96671.00;;;3.58;100.00
28606;BME280;46498;49.968;7.754;2022-11-28T10:24:52;96671.00;;;3.64;100.00
28606;BME280;46498;49.968;7.754;2022-11-28T10:30:03;96660.00;;;3.78;100.00
28606;BME280;46498;49.968;7.754;2022-11-28T10:35:16;96656.00;;;3.66;100.00
28606;BME280;46498;49.968;7.754;2022-11-28T10:54:08;96649.00;;;3.53;100.00
28606;BME280;46498;49.968;7.754;2022-11-28T10:59:54;96658.00;;;3.71;100.00
28606;BME280;46498;49.968;7.754;2022-11-28T11:04:57;96651.00;;;3.63;100.00
28606;BME280;46498;49.968;7.754;2022-11-28T11:10:13;96650.00;;;3.64;100.00
28606;BME280;46498;49.968;7.754;2022-11-28T11:15:40;96641.00;;;3.60;100.00
28606;BME280;46498;49.968;7.754;2022-11-28T11:20:42;96656.00;;;3.68;100.00
28606;BME280;46498;49.968;7.754;2022-11-28T11:25:53;96647.00;;;3.73;100.00
28606;BME280;46498;49.968;7.754;2022-11-28T11:31:12;96650.00;;;3.78;100.00
28606;BME280;46498;49.968;7.754;2022-11-28T11:36:33;96648.00;;;3.85;100.00
28606;BME280;46498;49.968;7.754;2022-11-28T11:41:37;96645.00;;;3.90;100.00
28606;BME280;46498;49.968;7.754;2022-11-28T11:46:58;96632.00;;;3.99;100.00
28606;BME280;46498;49.968;7.754;2022-11-28T11:52:24;96638.00;;;3.89;100.00
28606;BME280;46498;49.968;7.754;2022-11-28T12:00:09;96627.00;;;3.98;100.00
28606;BME280;46498;49.968;7.754;2022-11-28T12:05:19;96629.00;;;4.21;100.00
28606;BME280;46498;49.968;7.754;2022-11-28T12:10:23;96624.00;;;4.38;100.00
28606;BME280;46498;49.968;7.754;2022-11-28T12:15:50;96628.00;;;4.28;100.00
28606;BME280;46498;49.968;7.754;2022-11-28T12:21:29;96623.00;;;4.28;100.00
28606;BME280;46498;49.968;7.754;2022-11-28T12:26:49;96630.00;;;4.40;100.00
28606;BME280;46498;49.968;7.754;2022-11-28T12:32:18;96633.00;;;4.35;100.00
28606;BME280;46498;49.968;7.754;2022-11-28T12:38:29;96629.00;;;4.04;100.00
28606;BME280;46498;49.968;7.754;2022-11-28T12:45:26;96619.00;;;3.94;100.00
28606;BME280;46498;49.968;7.754;2022-11-28T12:50:37;96618.00;;;3.97;100.00
28606;BME280;46498;49.968;7.754;2022-11-28T12:57:23;96613.00;;;3.89;100.00
28606;BME280;46498;49.968;7.754;2022-11-28T13:08:49;96611.00;;;3.89;100.00
28606;BME280;46498;49.968;7.754;2022-11-28T13:14:08;96615.00;;;3.95;100.00
28606;BME280;46498;49.968;7.754;2022-11-28T13:22:19;96614.00;;;3.86;100.00
28606;BME280;46498;49.968;7.754;2022-11-28T13:27:43;96611.00;;;3.93;100.00
28606;BME280;46498;49.968;7.754;2022-11-28T13:33:26;96611.00;;;3.94;100.00
28606;BME280;46498;49.968;7.754;2022-11-28T13:40:12;96606.00;;;4.04;100.00
28606;BME280;46498;49.968;7.754;2022-11-28T13:45:27;96610.00;;;4.10;100.00
28606;BME280;46498;49.968;7.754;2022-11-28T13:50:38;96608.00;;;4.10;100.00
28606;BME280;46498;49.968;7.754;2022-11-28T13:55:44;96618.00;;;4.21;100.00
28606;BME280;46498;49.968;7.754;2022-11-28T14:01:01;96620.00;;;4.28;100.00
28606;BME280;46498;49.968;7.754;2022-11-28T14:06:05;96619.00;;;4.29;100.00
28606;BME280;46498;49.968;7.754;2022-11-28T14:11:34;96615.00;;;4.25;100.00
28606;BME280;46498;49.968;7.754;2022-11-28T14:25:39;96608.00;;;4.40;100.00
28606;BME280;46498;49.968;7.754;2022-11-28T14:30:43;96615.00;;;4.44;100.00
28606;BME280;46498;49.968;7.754;2022-11-28T14:43:19;96622.00;;;4.81;100.00
28606;BME280;46498;49.968;7.754;2022-11-28T14:48:30;96625.00;;;5.29;100.00
28606;BME280;46498;49.968;7.754;2022-11-28T14:53:50;96627.00;;;4.76;100.00
28606;BME280;46498;49.968;7.754;2022-11-28T14:58:55;96635.00;;;4.51;100.00
28606;BME280;46498;49.968;7.754;2022-11-28T15:04:18;96633.00;;;4.36;100.00
28606;BME280;46498;49.968;7.754;2022-11-28T15:09:33;96637.00;;;4.34;100.00
28606;BME280;46498;49.968;7.754;2022-11-28T15:14:38;96637.00;;;4.23;100.00
28606;BME280;46498;49.968;7.754;2022-11-28T15:19:45;96630.00;;;4.24;100.00
28606;BME280;46498;49.968;7.754;2022-11-28T15:24:50;96641.00;;;4.24;100.00
28606;BME280;46498;49.968;7.754;2022-11-28T15:29:59;96637.00;;;4.23;100.00
28606;BME280;46498;49.968;7.754;2022-11-28T15:35:03;96634.00;;;4.26;100.00
28606;BME280;46498;49.968;7.754;2022-11-28T15:40:33;96643.00;;;4.30;100.00
28606;BME280;46498;49.968;7.754;2022-11-28T15:45:36;96643.00;;;4.24;100.00
28606;BME280;46498;49.968;7.754;2022-11-28T15:50:49;96646.00;;;4.22;100.00
28606;BME280;46498;49.968;7.754;2022-11-28T15:56:13;96644.00;;;4.28;100.00
28606;BME280;46498;49.968;7.754;2022-11-28T16:01:35;96652.00;;;4.21;100.00
28606;BME280;46498;49.968;7.754;2022-11-28T16:06:38;96651.00;;;4.22;100.00
28606;BME280;46498;49.968;7.754;2022-11-28T16:11:42;96654.00;;;4.25;100.00
28606;BME280;46498;49.968;7.754;2022-11-28T16:16:45;96653.00;;;4.27;100.00
28606;BME280;46498;49.968;7.754;2022-11-28T16:21:52;96660.00;;;4.26;100.00
28606;BME280;46498;49.968;7.754;2022-11-28T16:27:04;96656.00;;;4.23;100.00
28606;BME280;46498;49.968;7.754;2022-11-28T16:32:20;96658.00;;;4.33;100.00
28606;BME280;46498;49.968;7.754;2022-11-28T16:37:25;96654.00;;;4.36;100.00
28606;BME280;46498;49.968;7.754;2022-11-28T16:42:27;96657.00;;;4.38;100.00
28606;BME280;46498;49.968;7.754;2022-11-28T16:47:29;96658.00;;;4.44;100.00
28606;BME280;46498;49.968;7.754;2022-11-28T16:52:49;96662.00;;;4.46;100.00
28606;BME280;46498;49.968;7.754;2022-11-28T16:57:54;96659.00;;;4.60;100.00
28606;BME280;46498;49.968;7.754;2022-11-28T17:02:56;96668.00;;;4.69;100.00
28606;BME280;46498;49.968;7.754;2022-11-28T17:07:57;96660.00;;;4.85;100.00
28606;BME280;46498;49.968;7.754;2022-11-28T17:13:01;96671.00;;;4.96;100.00
28606;BME280;46498;49.968;7.754;2022-11-28T17:18:02;96671.00;;;5.03;100.00
28606;BME280;46498;49.968;7.754;2022-11-28T17:23:03;96676.00;;;5.01;100.00
28606;BME280;46498;49.968;7.754;2022-11-28T17:28:04;96677.00;;;5.06;100.00
28606;BME280;46498;49.968;7.754;2022-11-28T17:33:04;96679.00;;;4.88;100.00
28606;BME280;46498;49.968;7.754;2022-11-28T17:38:05;96681.00;;;4.81;100.00
28606;BME280;46498;49.968;7.754;2022-11-28T17:43:14;96681.00;;;4.83;100.00
28606;BME280;46498;49.968;7.754;2022-11-28T17:48:16;96684.00;;;4.78;100.00
28606;BME280;46498;49.968;7.754;2022-11-28T17:53:19;96688.00;;;4.79;100.00
28606;BME280;46498;49.968;7.754;2022-11-28T17:58:22;96682.00;;;4.87;100.00
28606;BME280;46498;49.968;7.754;2022-11-28T18:03:27;96684.00;;;4.78;100.00
28606;BME280;46498;49.968;7.754;2022-11-28T18:08:28;96681.00;;;4.74;100.00
28606;BME280;46498;49.968;7.754;2022-11-28T18:13:30;96677.00;;;4.67;100.00
28606;BME280;46498;49.968;7.754;2022-11-28T18:18:31;96679.00;;;4.71;100.00
28606;BME280;46498;49.968;7.754;2022-11-28T18:23:37;96684.00;;;4.68;100.00
28606;BME280;46498;49.968;7.754;2022-11-28T18:28:39;96680.00;;;4.44;100.00
28606;BME280;46498;49.968;7.754;2022-11-28T18:33:41;96684.00;;;4.48;100.00
28606;BME280;46498;49.968;7.754;2022-11-28T18:38:44;96687.00;;;4.45;100.00
28606;BME280;46498;49.968;7.754;2022-11-28T18:43:45;96681.00;;;4.53;100.00
28606;BME280;46498;49.968;7.754;2022-11-28T18:48:46;96686.00;;;4.56;100.00
28606;BME280;46498;49.968;7.754;2022-11-28T18:53:48;96693.00;;;4.57;100.00
28606;BME280;46498;49.968;7.754;2022-11-28T18:58:51;96689.00;;;4.64;100.00
28606;BME280;46498;49.968;7.754;2022-11-28T19:03:58;96689.00;;;4.72;100.00
28606;BME280;46498;49.968;7.754;2022-11-28T19:09:02;96698.00;;;4.80;100.00
28606;BME280;46498;49.968;7.754;2022-11-28T19:14:04;96704.00;;;4.75;100.00
28606;BME280;46498;49.968;7.754;2022-11-28T19:19:06;96705.00;;;4.76;100.00
28606;BME280;46498;49.968;7.754;2022-11-28T19:24:10;96707.00;;;4.70;100.00
28606;BME280;46498;49.968;7.754;2022-11-28T19:29:12;96700.00;;;4.74;100.00
28606;BME280;46498;49.968;7.754;2022-11-28T19:34:15;96706.00;;;4.78;100.00
28606;BME280;46498;49.968;7.754;2022-11-28T19:39:20;96692.00;;;4.73;100.00
28606;BME280;46498;49.968;7.754;2022-11-28T19:44:22;96700.00;;;4.72;100.00
28606;BME280;46498;49.968;7.754;2022-11-28T19:49:25;96706.00;;;4.78;100.00
28606;BME280;46498;49.968;7.754;2022-11-28T19:54:26;96702.00;;;4.86;100.00
28606;BME280;46498;49.968;7.754;2022-11-28T19:59:28;96706.00;;;4.86;100.00
28606;BME280;46498;49.968;7.754;2022-11-28T20:04:31;96706.00;;;4.88;100.00
28606;BME280;46498;49.968;7.754;2022-11-28T20:09:32;96708.00;;;4.91;100.00
28606;BME280;46498;49.968;7.754;2022-11-28T20:14:32;96710.00;;;4.89;100.00
28606;BME280;46498;49.968;7.754;2022-11-28T20:19:33;96714.00;;;4.83;100.00
28606;BME280;46498;49.968;7.754;2022-11-28T20:24:34;96720.00;;;4.83;100.00
28606;BME280;46498;49.968;7.754;2022-11-28T20:29:35;96721.00;;;4.87;100.00
28606;BME280;46498;49.968;7.754;2022-11-28T20:34:36;96730.00;;;4.94;100.00
28606;BME280;46498;49.968;7.754;2022-11-28T20:39:37;96739.00;;;4.99;100.00
28606;BME280;46498;49.968;7.754;2022-11-28T20:44:39;96740.00;;;4.98;100.00
28606;BME280;46498;49.968;7.754;2022-11-28T20:49:40;96738.00;;;5.02;100.00
28606;BME280;46498;49.968;7.754;2022-11-28T20:54:41;96740.00;;;5.08;100.00
28606;BME280;46498;49.968;7.754;2022-11-28T20:59:42;96736.00;;;5.13;100.00
28606;BME280;46498;49.968;7.754;2022-11-28T21:04:43;96744.00;;;5.14;100.00
28606;BME280;46498;49.968;7.754;2022-11-28T21:09:44;96737.00;;;5.15;100.00
28606;BME280;46498;49.968;7.754;2022-11-28T21:14:46;96744.00;;;5.18;100.00
28606;BME280;46498;49.968;7.754;2022-11-28T21:19:46;96738.00;;;5.19;100.00
28606;BME280;46498;49.968;7.754;2022-11-28T21:24:48;96743.00;;;5.42;100.00
28606;BME280;46498;49.968;7.754;2022-11-28T21:29:50;96742.00;;;5.36;100.00
28606;BME280;46498;49.968;7.754;2022-11-28T21:34:51;96742.00;;;5.33;100.00
28606;BME280;46498;49.968;7.754;2022-11-28T21:39:53;96746.00;;;5.26;100.00
28606;BME280;46498;49.968;7.754;2022-11-28T21:44:54;96743.00;;;5.19;100.00
28606;BME280;46498;49.968;7.754;2022-11-28T21:49:55;96749.00;;;5.12;100.00
28606;BME280;46498;49.968;7.754;2022-11-28T21:54:56;96752.00;;;5.08;100.00
28606;BME280;46498;49.968;7.754;2022-11-28T21:59:56;96750.00;;;5.10;100.00
28606;BME280;46498;49.968;7.754;2022-11-28T22:04:58;96744.00;;;5.11;100.00
28606;BME280;46498;49.968;7.754;2022-11-28T22:09:59;96745.00;;;5.13;100.00
28606;BME280;46498;49.968;7.754;2022-11-28T22:15:00;96746.00;;;5.12;100.00
28606;BME280;46498;49.968;7.754;2022-11-28T22:20:02;96742.00;;;5.13;100.00
28606;BME280;46498;49.968;7.754;2022-11-28T22:25:05;96747.00;;;5.18;100.00
28606;BME280;46498;49.968;7.754;2022-11-28T22:30:07;96750.00;;;5.18;100.00
28606;BME280;46498;49.968;7.754;2022-11-28T22:35:09;96755.00;;;5.09;100.00
28606;BME280;46498;49.968;7.754;2022-11-28T22:40:10;96754.00;;;5.02;100.00
28606;BME280;46498;49.968;7.754;2022-11-28T22:45:12;96761.00;;;5.03;100.00
28606;BME280;46498;49.968;7.754;2022-11-28T22:50:13;96763.00;;;4.98;100.00
28606;BME280;46498;49.968;7.754;2022-11-28T22:55:14;96758.00;;;5.01;100.00
28606;BME280;46498;49.968;7.754;2022-11-28T23:00:15;96766.00;;;4.99;100.00
28606;BME280;46498;49.968;7.754;2022-11-28T23:05:17;96761.00;;;4.91;100.00
28606;BME280;46498;49.968;7.754;2022-11-28T23:10:18;96766.00;;;4.89;100.00
28606;BME280;46498;49.968;7.754;2022-11-28T23:15:18;96769.00;;;4.90;100.00
28606;BME280;46498;49.968;7.754;2022-11-28T23:20:19;96769.00;;;4.90;100.00
28606;BME280;46498;49.968;7.754;2022-11-28T23:25:21;96776.00;;;4.81;100.00
28606;BME280;46498;49.968;7.754;2022-11-28T23:30:22;96768.00;;;4.80;100.00
28606;BME280;46498;49.968;7.754;2022-11-28T23:35:26;96774.00;;;4.88;100.00
28606;BME280;46498;49.968;7.754;2022-11-28T23:40:27;96774.00;;;4.94;100.00
28606;BME280;46498;49.968;7.754;2022-11-28T23:45:28;96775.00;;;4.98;100.00
28606;BME280;46498;49.968;7.754;2022-11-28T23:50:29;96781.00;;;5.05;100.00
28606;BME280;46498;49.968;7.754;2022-11-28T23:55:32;96775.00;;;4.98;100.00
